Quetta, Pakistan
Current Conditions -  °F | °C
As of 10:55 PM on Thursday 29 Jan 2015 (Local Time) from KQHN Reporting Station
Clear Clear  
Wind Chill: 42°   Ceiling: Unl
Heat Index: 46°   Visibility: 6mi
Dew Point: 25°   Wind: 8mph
Humidity: 43%   Direction: 60°ENE
Pressure: 30.18"   Gusts: NA
Location:  30.21°N, 67.02°E
Report Text: KQHN 291755Z 06007KT 9999 CLR 08/M04 A3018 RMK SLP231 Q1022 DA3030
Loading
Personal Weather Stations






























Interactive Weather Map New forecast layout! Learn more

10-Day Weather Forecast

Advertisements
Track Severe Weather on mobile